Time;durP1;ratioP1;P1;durP2;ratioP2;P2;SDS_P1;SDS_P2;PMS_P1;PMS_P2;Temp;Humidity;BMP_temperature;BMP_pressure;BME280_temperature;BME280_humidity;BME280_pressure;Samples;Min_cycle;Max_cycle;Signal;HPM_P1;HPM_P2
2023/03/30 00:01:43;;;;;;;12.10;2.53;;;;;;;15.06;50.93;95285.00;6074052;23;20199;-84
2023/03/30 00:04:10;;;;;;;9.80;2.90;;;;;;;15.04;50.69;95279.94;6074899;23;20176;-85
2023/03/30 00:06:38;;;;;;;10.10;3.17;;;;;;;15.18;50.54;95275.69;6074460;23;20168;-85
2023/03/30 00:09:04;;;;;;;13.17;3.30;;;;;;;15.07;50.71;95276.97;6050786;23;20177;-86
2023/03/30 00:11:32;;;;;;;10.10;3.17;;;;;;;15.15;50.56;95268.22;6075158;23;20156;-87
2023/03/30 00:13:58;;;;;;;10.93;2.90;;;;;;;15.12;50.80;95268.59;6051042;23;20188;-86
2023/03/30 00:16:23;;;;;;;17.30;3.20;;;;;;;15.16;51.04;95269.81;6073932;23;20164;-85
2023/03/30 00:18:49;;;;;;;13.77;2.70;;;;;;;15.10;51.06;95270.53;6073981;23;20207;-86
2023/03/30 00:21:16;;;;;;;16.73;3.43;;;;;;;15.13;51.41;95254.50;6073758;23;20195;-86
2023/03/30 00:23:42;;;;;;;14.70;3.10;;;;;;;15.01;51.37;95248.91;6073833;23;20161;-84
2023/03/30 00:26:07;;;;;;;11.20;3.57;;;;;;;15.00;51.65;95247.28;6073567;23;20169;-86
2023/03/30 00:28:33;;;;;;;14.03;3.37;;;;;;;15.00;51.90;95242.88;6097690;23;20180;-85
2023/03/30 00:30:59;;;;;;;17.47;3.90;;;;;;;15.09;51.46;95248.81;6074551;23;20156;-85
2023/03/30 00:33:24;;;;;;;11.17;3.13;;;;;;;15.01;51.98;95243.69;6074331;23;20175;-85
2023/03/30 00:35:59;;;;;;;16.10;3.33;;;;;;;14.91;52.50;95235.31;6073770;23;20212;-84
2023/03/30 00:38:25;;;;;;;14.13;3.90;;;;;;;14.85;52.48;95236.06;6050388;23;20175;-87
2023/03/30 00:40:58;;;;;;;15.67;3.47;;;;;;;14.92;52.15;95232.50;6075874;23;20164;-86
2023/03/30 00:43:25;;;;;;;17.60;3.73;;;;;;;14.87;52.43;95219.19;6075017;23;20236;-86
2023/03/30 00:45:50;;;;;;;14.47;4.17;;;;;;;14.92;52.57;95229.09;6073811;23;20217;-84
2023/03/30 00:48:20;;;;;;;15.60;4.13;;;;;;;14.92;52.76;95231.69;6074397;23;20180;-86
2023/03/30 00:50:55;;;;;;;10.53;3.30;;;;;;;14.85;53.13;95236.88;6074758;23;20207;-86
2023/03/30 00:53:53;;;;;;;19.73;4.13;;;;;;;14.88;53.49;95233.88;6098328;23;20167;-85
2023/03/30 00:56:21;;;;;;;15.47;4.23;;;;;;;14.91;53.82;95240.53;6091233;23;20192;-85
2023/03/30 00:58:47;;;;;;;15.10;4.57;;;;;;;14.87;53.72;95234.88;6050349;23;20192;-87
2023/03/30 01:01:14;;;;;;;13.10;3.90;;;;;;;14.81;54.28;95235.59;6074485;23;20185;-85
2023/03/30 01:03:46;;;;;;;15.97;4.20;;;;;;;14.69;54.93;95253.53;6074581;23;20157;-86
2023/03/30 01:06:12;;;;;;;11.37;3.37;;;;;;;14.57;55.86;95260.19;6073362;23;20165;-85
2023/03/30 01:08:38;;;;;;;12.43;3.10;;;;;;;14.48;57.24;95247.38;6050201;23;20183;-85
2023/03/30 01:11:07;;;;;;;12.23;2.97;;;;;;;14.43;58.25;95247.91;6074079;23;20157;-86
2023/03/30 01:13:35;;;;;;;11.03;2.73;;;;;;;14.36;58.70;95253.03;6074395;23;20160;-86
2023/03/30 01:16:09;;;;;;;13.73;3.50;;;;;;;14.51;58.20;95239.22;6049051;23;20167;-86
2023/03/30 01:18:53;;;;;;;9.67;3.40;;;;;;;14.58;57.93;95229.66;6073305;23;20639;-84
2023/03/30 01:21:42;;;;;;;15.37;2.93;;;;;;;14.51;58.23;95226.94;6073224;23;20520;-84
2023/03/30 01:24:10;;;;;;;9.13;3.00;;;;;;;14.54;58.48;95223.16;6074334;23;20140;-85
2023/03/30 01:27:08;;;;;;;10.90;3.47;;;;;;;14.59;58.41;95226.06;6097141;23;20161;-85
2023/03/30 01:29:52;;;;;;;11.23;3.13;;;;;;;14.48;59.67;95234.31;6093332;23;20180;-86
2023/03/30 01:32:29;;;;;;;15.37;3.80;;;;;;;14.28;60.92;95252.28;6073210;23;20167;-86
2023/03/30 01:35:09;;;;;;;15.73;3.50;;;;;;;14.20;61.68;95250.56;6073436;23;20164;-85
2023/03/30 01:38:05;;;;;;;13.03;3.70;;;;;;;14.17;62.41;95250.91;6048855;23;20148;-86
2023/03/30 01:40:36;;;;;;;11.50;3.07;;;;;;;14.21;62.09;95244.34;6051415;23;20171;-87
2023/03/30 01:43:27;;;;;;;17.80;4.00;;;;;;;14.14;62.25;95243.44;6052041;23;20233;-84
2023/03/30 01:46:03;;;;;;;12.77;3.23;;;;;;;14.27;62.14;95232.38;6073689;23;20228;-84
2023/03/30 01:48:44;;;;;;;14.70;3.40;;;;;;;14.20;62.05;95236.69;6050882;23;20179;-84
2023/03/30 01:51:11;;;;;;;12.67;3.23;;;;;;;14.34;61.78;95255.00;6051815;23;20151;-84
2023/03/30 01:53:52;;;;;;;15.23;2.87;;;;;;;14.43;61.49;95248.72;6090965;23;20184;-85
2023/03/30 01:56:32;;;;;;;12.40;3.00;;;;;;;14.29;62.18;95248.69;6123787;23;20173;-86
2023/03/30 01:59:13;;;;;;;11.23;2.70;;;;;;;14.43;61.73;95253.13;6075279;23;20180;-89
2023/03/30 02:01:40;;;;;;;12.33;3.43;;;;;;;14.39;62.33;95249.22;6099626;23;20189;-89
2023/03/30 02:04:08;;;;;;;19.17;3.43;;;;;;;14.38;62.51;95251.03;6099486;23;20137;-90
2023/03/30 02:06:41;;;;;;;13.10;3.27;;;;;;;14.20;63.37;95257.56;6098787;23;20155;-90
2023/03/30 02:09:10;;;;;;;11.23;3.30;;;;;;;14.20;63.22;95258.38;6069707;23;20243;-85
2023/03/30 02:11:36;;;;;;;14.97;3.80;;;;;;;14.20;63.49;95268.84;6076765;23;20152;-85
2023/03/30 02:14:03;;;;;;;16.90;3.37;;;;;;;14.19;63.93;95275.03;6077056;23;20607;-84
2023/03/30 02:16:46;;;;;;;12.13;3.50;;;;;;;14.24;64.18;95270.13;6050870;23;20571;-84
2023/03/30 02:19:12;;;;;;;18.67;3.57;;;;;;;14.04;65.22;95264.56;6050086;23;20179;-84
2023/03/30 02:21:38;;;;;;;16.37;3.67;;;;;;;13.94;67.09;95263.97;6098985;23;20176;-84
2023/03/30 02:24:06;;;;;;;13.47;3.77;;;;;;;14.15;67.00;95261.53;6074694;23;20167;-84
2023/03/30 02:26:31;;;;;;;21.53;4.90;;;;;;;14.12;68.45;95259.25;6050343;23;20157;-85
2023/03/30 02:28:57;;;;;;;17.67;4.50;;;;;;;13.93;70.66;95254.53;6050621;23;20177;-85
2023/03/30 02:31:23;;;;;;;14.63;4.47;;;;;;;13.74;71.67;95248.00;6050703;23;20152;-84
2023/03/30 02:34:13;;;;;;;17.03;3.77;;;;;;;13.75;73.48;95246.19;6074081;23;20191;-85
2023/03/30 02:36:54;;;;;;;15.67;4.10;;;;;;;13.69;75.94;95245.06;6073466;23;20152;-85
2023/03/30 02:39:26;;;;;;;15.10;3.77;;;;;;;13.31;78.90;95231.94;6051001;23;20554;-86
2023/03/30 02:42:23;;;;;;;17.87;4.10;;;;;;;13.17;80.41;95204.00;6074105;23;20222;-84
2023/03/30 02:45:05;;;;;;;11.00;3.47;;;;;;;13.14;81.55;95188.66;6073245;23;20145;-85
2023/03/30 02:47:44;;;;;;;14.13;3.63;;;;;;;13.22;81.55;95174.81;6049600;23;20153;-84
2023/03/30 02:50:23;;;;;;;14.47;4.00;;;;;;;13.01;83.31;95175.41;6073058;23;20148;-85
2023/03/30 02:52:55;;;;;;;11.77;3.70;;;;;;;12.92;84.26;95173.81;6049584;23;20164;-84
2023/03/30 02:55:28;;;;;;;14.10;3.37;;;;;;;12.94;84.67;95177.06;6048922;23;20168;-84
2023/03/30 02:58:22;;;;;;;13.60;4.27;;;;;;;12.91;85.38;95174.81;6049546;23;20187;-84
2023/03/30 03:00:53;;;;;;;8.03;3.10;;;;;;;12.87;85.46;95166.50;6073267;23;20160;-86
2023/03/30 03:03:27;;;;;;;12.50;3.47;;;;;;;12.89;85.32;95168.94;6049404;23;20243;-85
2023/03/30 03:05:53;;;;;;;15.07;3.40;;;;;;;12.85;85.29;95170.28;6049109;23;20161;-86
2023/03/30 03:08:22;;;;;;;13.07;3.73;;;;;;;12.84;86.03;95172.06;6049489;23;20176;-84
2023/03/30 03:10:48;;;;;;;11.50;3.53;;;;;;;12.80;87.13;95169.97;6073988;23;20231;-84
2023/03/30 03:13:15;;;;;;;15.90;4.67;;;;;;;12.67;87.33;95163.50;6073917;23;20160;-84
2023/03/30 03:15:44;;;;;;;14.13;3.37;;;;;;;12.77;87.04;95153.69;6073174;23;20619;-85
2023/03/30 03:18:09;;;;;;;14.83;3.40;;;;;;;12.89;86.62;95150.69;6074020;23;20176;-83
2023/03/30 03:20:35;;;;;;;11.50;3.30;;;;;;;12.95;85.23;95148.22;6073272;23;20157;-84
2023/03/30 03:23:00;;;;;;;11.90;3.60;;;;;;;12.77;86.37;95148.47;6073727;23;20184;-84
2023/03/30 03:25:26;;;;;;;13.70;3.43;;;;;;;12.71;88.10;95145.72;6073033;23;20174;-84
2023/03/30 03:27:51;;;;;;;12.90;4.17;;;;;;;12.76;87.80;95143.44;6073383;23;20176;-85
2023/03/30 03:30:17;;;;;;;13.90;4.20;;;;;;;12.70;88.41;95144.94;6074146;23;20157;-84
2023/03/30 03:32:42;;;;;;;11.00;3.17;;;;;;;12.75;87.59;95142.63;6074490;23;20477;-86
2023/03/30 03:35:08;;;;;;;12.33;4.40;;;;;;;12.79;88.01;95153.50;6073270;23;20159;-84
2023/03/30 03:37:33;;;;;;;11.53;3.80;;;;;;;12.63;88.51;95157.03;6049372;23;20625;-85
2023/03/30 03:39:59;;;;;;;12.33;3.17;;;;;;;12.72;89.12;95156.00;6073026;23;20231;-86
2023/03/30 03:42:24;;;;;;;10.73;2.77;;;;;;;12.78;89.39;95157.09;6073020;23;20192;-87
2023/03/30 03:44:49;;;;;;;11.97;3.40;;;;;;;12.80;89.17;95152.53;6073125;23;20212;-84
2023/03/30 03:47:15;;;;;;;12.37;3.50;;;;;;;12.71;89.59;95143.94;6050321;23;20160;-85
2023/03/30 03:49:41;;;;;;;13.70;3.87;;;;;;;12.63;90.54;95130.13;6074745;23;20180;-85
2023/03/30 03:52:06;;;;;;;13.97;3.87;;;;;;;12.68;90.20;95126.06;6074529;23;20149;-85
2023/03/30 03:54:31;;;;;;;13.63;3.63;;;;;;;12.67;90.51;95119.22;6073430;23;20502;-85
2023/03/30 03:56:57;;;;;;;13.27;3.87;;;;;;;12.65;91.57;95123.78;6073071;23;20187;-86
2023/03/30 03:59:22;;;;;;;11.87;3.30;;;;;;;12.57;91.18;95126.44;6073376;23;20263;-84
2023/03/30 04:01:47;;;;;;;8.70;3.27;;;;;;;12.41;92.65;95127.31;6050244;23;20185;-84
2023/03/30 04:04:12;;;;;;;15.27;4.70;;;;;;;12.33;93.46;95121.31;6074054;23;20160;-86
2023/03/30 04:06:38;;;;;;;13.20;4.17;;;;;;;12.26;92.95;95110.75;6074603;23;20156;-85
2023/03/30 04:09:03;;;;;;;17.33;3.73;;;;;;;12.24;94.31;95106.72;6074024;23;20179;-85
2023/03/30 04:11:28;;;;;;;14.90;3.80;;;;;;;12.15;94.63;95098.94;6073743;23;20161;-85
2023/03/30 04:13:54;;;;;;;12.13;3.10;;;;;;;12.03;95.77;95100.28;6073686;23;20172;-86
2023/03/30 04:16:19;;;;;;;16.23;3.87;;;;;;;12.07;95.21;95092.94;6073255;23;20619;-87
2023/03/30 04:18:44;;;;;;;9.97;2.90;;;;;;;12.06;95.13;95080.91;6073909;23;20188;-84
2023/03/30 04:21:11;;;;;;;13.03;3.50;;;;;;;12.12;94.84;95075.84;6073447;23;20208;-84
2023/03/30 04:23:38;;;;;;;15.83;4.13;;;;;;;11.98;95.51;95079.16;6074178;23;20164;-84
2023/03/30 04:26:06;;;;;;;12.27;3.83;;;;;;;12.03;95.11;95078.66;6049779;23;20678;-84
2023/03/30 04:28:32;;;;;;;11.00;3.90;;;;;;;11.97;95.31;95087.94;6049707;23;20211;-87
2023/03/30 04:31:03;;;;;;;14.07;4.13;;;;;;;12.04;95.18;95075.06;6098107;23;20199;-84
2023/03/30 04:33:29;;;;;;;11.63;4.63;;;;;;;11.90;96.11;95068.75;6050306;23;20164;-84
2023/03/30 04:35:55;;;;;;;12.83;3.70;;;;;;;11.94;95.86;95059.66;6097683;23;20164;-85
2023/03/30 04:38:23;;;;;;;14.03;3.93;;;;;;;11.91;96.15;95050.38;6098086;23;20173;-86
2023/03/30 04:40:49;;;;;;;13.17;4.27;;;;;;;11.77;96.73;95045.03;6074446;23;20161;-85
2023/03/30 04:43:18;;;;;;;12.23;3.30;;;;;;;11.83;96.47;95042.59;6049485;23;20160;-84
2023/03/30 04:45:50;;;;;;;10.57;3.40;;;;;;;11.89;95.54;95038.50;6049938;23;20183;-87
2023/03/30 04:48:16;;;;;;;17.70;4.23;;;;;;;11.91;95.78;95046.97;6097624;23;20204;-86
2023/03/30 04:50:43;;;;;;;17.00;4.37;;;;;;;11.86;96.15;95041.47;6049997;23;20160;-86
2023/03/30 04:53:09;;;;;;;17.73;3.87;;;;;;;11.94;95.35;95038.84;6049731;23;20148;-85
2023/03/30 04:55:35;;;;;;;13.67;3.77;;;;;;;11.93;95.68;95037.22;6048710;23;20184;-85
2023/03/30 04:58:00;;;;;;;21.30;5.63;;;;;;;11.97;94.77;95022.06;6098565;23;20193;-85
2023/03/30 05:00:26;;;;;;;13.57;4.20;;;;;;;11.93;95.27;95032.00;6073697;23;20168;-84
2023/03/30 05:02:51;;;;;;;15.17;4.23;;;;;;;11.94;95.56;95019.81;6073261;23;20184;-84
2023/03/30 05:05:17;;;;;;;8.40;3.07;;;;;;;12.01;94.83;95024.16;6072475;23;20164;-84
2023/03/30 05:07:42;;;;;;;15.43;4.20;;;;;;;11.88;95.69;95016.09;6073004;23;20160;-86
2023/03/30 05:10:07;;;;;;;15.50;4.27;;;;;;;11.80;96.08;95024.72;6073647;23;20156;-85
2023/03/30 05:12:33;;;;;;;12.63;3.33;;;;;;;11.82;95.32;95021.94;6050482;23;20602;-86
2023/03/30 05:14:58;;;;;;;10.70;4.00;;;;;;;11.83;95.74;95007.97;6073069;23;20168;-86
2023/03/30 05:17:23;;;;;;;10.23;4.13;;;;;;;11.78;96.12;95012.84;6072892;23;20487;-83
2023/03/30 05:19:49;;;;;;;16.50;4.87;;;;;;;11.86;95.08;94999.84;6072896;23;20302;-88
2023/03/30 05:22:14;;;;;;;14.43;4.10;;;;;;;11.89;94.71;94989.09;6073621;23;20188;-86
2023/03/30 05:24:39;;;;;;;17.00;4.77;;;;;;;11.94;94.38;95007.63;6069999;23;20160;-84
2023/03/30 05:27:05;;;;;;;15.63;3.80;;;;;;;11.95;94.46;94991.03;6072501;23;20191;-82
2023/03/30 05:29:31;;;;;;;12.67;3.73;;;;;;;12.02;94.38;94997.19;6071500;23;20192;-83
2023/03/30 05:31:56;;;;;;;14.20;3.73;;;;;;;12.05;93.91;95004.63;6072448;23;20658;-83
2023/03/30 05:34:21;;;;;;;15.63;3.90;;;;;;;11.85;95.30;95029.44;6071942;23;20164;-82
2023/03/30 05:36:46;;;;;;;18.00;4.97;;;;;;;11.81;95.94;95038.53;6071398;23;20534;-84
2023/03/30 05:39:12;;;;;;;13.30;4.50;;;;;;;11.61;97.81;95048.47;6071332;23;20573;-83
2023/03/30 05:41:37;;;;;;;10.60;3.50;;;;;;;11.55;97.90;95075.13;6071571;23;20231;-80
2023/03/30 05:44:03;;;;;;;16.30;4.20;;;;;;;11.64;97.86;95092.34;6071496;23;20615;-84
2023/03/30 05:47:07;;;;;;;18.07;4.27;;;;;;;11.69;97.27;95118.69;6072567;23;20169;-87
2023/03/30 05:49:39;;;;;;;14.00;4.30;;;;;;;11.81;95.98;95117.41;6027106;23;20177;-84
2023/03/30 05:52:04;;;;;;;18.70;4.20;;;;;;;11.95;94.75;95125.50;6014311;23;20162;-84
2023/03/30 05:54:30;;;;;;;13.60;3.50;;;;;;;12.01;94.49;95130.84;6013784;23;20180;-84
2023/03/30 05:56:55;;;;;;;8.60;3.77;;;;;;;12.16;93.13;95152.63;6013425;23;20166;-84
2023/03/30 05:59:20;;;;;;;9.43;3.70;;;;;;;12.17;93.19;95150.81;6013776;23;20197;-84
2023/03/30 06:01:46;;;;;;;12.57;3.50;;;;;;;12.29;91.52;95146.09;6013870;23;20282;-84
2023/03/30 06:04:12;;;;;;;10.90;3.73;;;;;;;12.34;92.71;95160.22;5990632;23;20222;-86
2023/03/30 06:06:37;;;;;;;21.90;4.43;;;;;;;12.38;93.69;95171.13;5989992;23;20260;-85
2023/03/30 06:09:03;;;;;;;11.77;3.77;;;;;;;12.47;93.40;95181.34;6038682;23;20629;-85
2023/03/30 06:11:30;;;;;;;12.57;4.03;;;;;;;12.37;95.88;95185.94;6014509;23;20158;-84
2023/03/30 06:13:56;;;;;;;15.00;4.40;;;;;;;12.31;97.26;95191.78;5991917;23;20196;-86
2023/03/30 06:16:22;;;;;;;12.93;4.27;;;;;;;12.27;98.69;95187.06;5991789;23;20171;-87
2023/03/30 06:18:47;;;;;;;15.60;4.47;;;;;;;12.16;100.00;95185.63;6049908;23;20255;-85
2023/03/30 06:21:13;;;;;;;12.30;4.30;;;;;;;12.28;100.00;95183.50;6073053;23;20189;-86
2023/03/30 06:23:40;;;;;;;12.73;3.87;;;;;;;12.32;100.00;95188.22;6073239;23;20163;-85
2023/03/30 06:26:06;;;;;;;17.53;4.73;;;;;;;12.32;100.00;95192.59;6048937;23;20164;-86
2023/03/30 06:28:32;;;;;;;12.00;4.50;;;;;;;12.27;100.00;95193.09;6049259;23;20176;-84
2023/03/30 06:31:16;;;;;;;16.57;4.67;;;;;;;12.24;100.00;95203.03;6073919;23;20157;-83
2023/03/30 06:33:42;;;;;;;9.53;4.87;;;;;;;12.21;100.00;95205.97;6097218;23;20157;-84
2023/03/30 06:36:14;;;;;;;15.53;4.30;;;;;;;12.11;100.00;95209.56;6073206;23;20164;-84
2023/03/30 06:38:48;;;;;;;16.67;4.13;;;;;;;12.13;100.00;95175.56;6097402;23;20172;-85
2023/03/30 07:47:29;;;;;;;;;;;;;;;;;;;;;
2023/03/30 07:53:49;;;;;;;;;;;;;;;;;;;;;
2023/03/30 08:31:27;;;;;;;1.97;1.40;;;;;;;11.01;100.00;95202.97;5876643;24;20173;-84
2023/03/30 08:34:17;;;;;;;3.60;1.23;;;;;;;10.94;100.00;95211.53;5846725;24;20598;-84
2023/03/30 08:36:50;;;;;;;2.20;1.50;;;;;;;10.92;100.00;95214.31;5846270;24;20167;-84
2023/03/30 08:43:23;;;;;;;;;;;;;;;;;;;;;
2023/03/30 08:45:51;;;;;;;3.13;1.40;;;;;;;10.97;100.00;95186.06;5845579;24;20256;-84
2023/03/30 08:48:47;;;;;;;3.93;1.50;;;;;;;11.32;99.37;95189.41;5846216;24;20664;-86
2023/03/30 08:51:26;;;;;;;2.17;1.80;;;;;;;11.27;99.71;95189.88;5820254;24;20651;-86
2023/03/30 08:57:58;;;;;;;3.53;1.90;;;;;;;11.43;96.48;95185.66;5777338;24;20202;-85
2023/03/30 09:01:03;;;;;;;5.13;2.00;;;;;;;11.60;96.02;95200.31;5800226;24;20622;-85
2023/03/30 09:04:26;;;;;;;3.57;1.80;;;;;;;12.05;93.07;95202.41;5805325;24;20576;-85
2023/03/30 09:07:33;;;;;;;2.83;2.10;;;;;;;12.09;92.31;95210.69;5691062;25;20173;-86
2023/03/30 09:10:02;;;;;;;2.73;1.80;;;;;;;12.24;89.91;95218.66;5746415;24;20671;-86
2023/03/30 09:13:12;;;;;;;4.73;2.23;;;;;;;12.47;91.30;95212.59;5752624;24;20592;-85
2023/03/30 09:16:24;;;;;;;4.63;2.17;;;;;;;12.55;90.34;95193.53;5752618;24;20968;-86
2023/03/30 09:19:20;;;;;;;6.73;2.80;;;;;;;12.74;87.55;95193.13;5793508;24;20190;-85
2023/03/30 09:21:48;;;;;;;4.53;2.07;;;;;;;12.94;87.12;95218.75;5885337;24;20269;-86
2023/03/30 09:24:22;;;;;;;4.87;1.67;;;;;;;12.84;86.87;95220.75;5870228;24;20178;-87
2023/03/30 09:27:24;;;;;;;3.57;1.93;;;;;;;12.95;84.23;95221.19;5847497;24;20653;-84
2023/03/30 09:30:01;;;;;;;3.33;1.67;;;;;;;13.05;84.67;95231.41;5824991;24;20186;-84
2023/03/30 09:32:40;;;;;;;3.67;2.30;;;;;;;13.12;83.94;95249.78;5827162;24;20182;-86
2023/03/30 09:38:31;;;;;;;4.63;2.33;;;;;;;13.11;86.38;95248.19;5848420;24;20200;-84
2023/03/30 09:41:39;;;;;;;6.43;2.00;;;;;;;13.07;87.93;95259.91;5847494;24;20638;-84
2023/03/30 09:44:32;;;;;;;5.60;2.20;;;;;;;13.03;87.61;95262.06;5907350;24;20165;-86
2023/03/30 09:47:25;;;;;;;5.33;2.60;;;;;;;13.10;87.35;95265.63;5884255;24;20530;-85
2023/03/30 09:50:01;;;;;;;5.07;2.53;;;;;;;13.28;86.75;95274.03;5906598;24;20185;-84
2023/03/30 10:27:38;;;;;;;7.63;2.90;;;;;;;14.06;76.01;95236.50;5974438;23;21211;-85
2023/03/30 11:00:54;;;;;;;5.30;2.90;;;;;;;14.14;72.19;95191.22;5962865;24;20572;-86
2023/03/30 11:04:10;;;;;;;;;;;;;;;;;;;;;
2023/03/30 11:07:09;;;;;;;4.17;2.40;;;;;;;14.25;72.86;95205.63;5780984;24;20199;-87
2023/03/30 11:09:53;;;;;;;3.33;2.30;;;;;;;14.60;72.43;95209.38;5783075;24;20188;-84
2023/03/30 11:13:00;;;;;;;3.33;2.60;;;;;;;14.72;72.06;95205.31;5781357;24;20563;-87
2023/03/30 11:19:02;;;;;;;5.27;2.40;;;;;;;14.35;71.86;95204.38;5769019;24;20734;-86
2023/03/30 11:21:33;;;;;;;6.43;2.37;;;;;;;14.57;70.50;95207.13;5746794;24;20338;-86
2023/03/30 11:24:18;;;;;;;6.03;2.27;;;;;;;14.65;70.26;95214.88;5746111;24;20228;-86
2023/03/30 11:26:50;;;;;;;6.33;3.40;;;;;;;14.17;71.04;95214.34;5710804;25;20165;-86
2023/03/30 11:29:51;;;;;;;4.80;2.97;;;;;;;14.23;69.90;95216.25;5742345;24;20209;-86
2023/03/30 11:32:28;;;;;;;6.30;2.50;;;;;;;14.11;71.51;95220.28;5741650;25;20169;-86
2023/03/30 11:35:05;;;;;;;4.90;2.60;;;;;;;14.11;71.90;95220.28;5742164;24;20242;-86
2023/03/30 11:37:57;;;;;;;6.00;2.67;;;;;;;14.18;71.27;95222.00;5751147;24;20200;-85
2023/03/30 11:40:28;;;;;;;6.93;2.83;;;;;;;14.35;70.19;95224.47;5784144;24;20170;-86
2023/03/30 11:43:00;;;;;;;7.47;2.47;;;;;;;14.32;70.30;95220.41;5828875;24;20646;-86
2023/03/30 11:45:44;;;;;;;5.47;2.20;;;;;;;14.58;70.06;95234.88;5872324;24;20174;-85
2023/03/30 11:48:30;;;;;;;4.63;2.30;;;;;;;14.22;71.06;95222.44;5829570;24;20185;-85
2023/03/30 11:51:20;;;;;;;7.30;2.40;;;;;;;13.85;71.93;95207.59;5873116;24;20225;-86
2023/03/30 11:54:15;;;;;;;6.47;2.53;;;;;;;14.04;71.51;95214.94;5989135;23;20246;-86
2023/03/30 11:56:50;;;;;;;6.90;2.90;;;;;;;14.13;70.86;95205.25;5965227;23;20234;-86
2023/03/30 11:59:43;;;;;;;6.37;2.73;;;;;;;13.79;72.22;95205.72;5989718;23;20178;-86
2023/03/30 12:02:30;;;;;;;6.77;2.40;;;;;;;14.25;71.18;95214.28;6014431;23;20174;-86
2023/03/30 12:05:04;;;;;;;6.30;2.50;;;;;;;14.08;69.60;95200.56;5965393;23;20193;-86
2023/03/30 12:07:48;;;;;;;7.80;2.63;;;;;;;14.20;68.62;95213.19;5989003;23;20711;-87
2023/03/30 12:10:29;;;;;;;7.97;2.30;;;;;;;14.80;66.55;95201.78;6012487;23;20155;-87
2023/03/30 12:12:55;;;;;;;4.97;2.30;;;;;;;14.82;65.36;95194.56;5989882;23;20151;-86
2023/03/30 12:15:39;;;;;;;5.20;2.80;;;;;;;14.58;64.01;95183.44;5964744;23;20163;-81
2023/03/30 12:18:14;;;;;;;4.63;2.27;;;;;;;14.58;64.29;95182.63;5989402;23;20179;-85
2023/03/30 12:20:57;;;;;;;5.57;2.20;;;;;;;14.62;64.84;95181.25;6012537;23;20182;-85
2023/03/30 12:23:38;;;;;;;5.67;2.60;;;;;;;14.78;65.12;95173.22;5966191;23;20179;-87
2023/03/30 12:26:17;;;;;;;6.33;2.40;;;;;;;14.83;64.18;95176.09;5987979;23;20158;-86
2023/03/30 12:28:48;;;;;;;4.17;2.03;;;;;;;14.62;63.76;95199.56;5988672;23;20268;-86
2023/03/30 12:31:13;;;;;;;6.27;2.33;;;;;;;14.14;61.86;95150.25;5965500;23;20158;-86
2023/03/30 12:33:49;;;;;;;5.03;2.30;;;;;;;14.65;63.13;95168.63;5989958;23;20535;-85
2023/03/30 12:36:34;;;;;;;5.47;2.20;;;;;;;14.71;62.57;95152.22;5989902;23;20154;-88
2023/03/30 12:39:04;;;;;;;7.77;2.40;;;;;;;15.20;61.82;95166.47;5989004;23;20174;-87
2023/03/30 12:41:43;;;;;;;5.57;2.03;;;;;;;14.93;61.55;95129.59;5966991;23;20182;-87
2023/03/30 12:44:20;;;;;;;7.53;2.20;;;;;;;15.05;60.31;95121.25;5989993;23;20159;-82
2023/03/30 12:47:14;;;;;;;7.67;2.10;;;;;;;14.77;59.66;95129.78;6012833;23;20197;-86
2023/03/30 12:50:31;;;;;;;5.23;2.00;;;;;;;14.77;60.01;95115.91;5990860;23;20205;-87
2023/03/30 12:53:34;;;;;;;5.40;1.90;;;;;;;14.81;58.25;95104.09;6010957;23;20174;-86
2023/03/30 12:56:45;;;;;;;4.63;2.23;;;;;;;15.08;58.55;95124.28;6012025;23;20270;-87
2023/03/30 12:59:35;;;;;;;7.00;2.07;;;;;;;14.80;59.71;95142.47;6014386;23;20174;-87
2023/03/30 13:02:26;;;;;;;5.10;2.03;;;;;;;15.51;58.99;95143.44;6013726;23;20955;-86
2023/03/30 13:04:52;;;;;;;5.57;2.30;;;;;;;15.54;59.06;95139.63;5990114;23;20234;-86
2023/03/30 13:07:22;;;;;;;6.53;2.30;;;;;;;15.61;57.40;95131.88;5989534;23;20210;-85
2023/03/30 13:09:52;;;;;;;4.80;2.20;;;;;;;15.78;57.76;95133.22;5989593;23;20518;-85
2023/03/30 13:12:36;;;;;;;4.43;1.93;;;;;;;16.06;56.83;95136.63;5988700;23;20151;-84
2023/03/30 13:15:03;;;;;;;6.50;2.17;;;;;;;15.92;56.04;95142.00;5988485;23;20162;-84
2023/03/30 13:17:55;;;;;;;3.05;1.73;;;;;;;15.69;55.47;95139.59;5990373;23;20162;-85
2023/03/30 13:20:36;;;;;;;3.80;1.70;;;;;;;15.36;55.48;95123.56;6014059;23;20314;-85
2023/03/30 13:23:42;;;;;;;5.63;2.00;;;;;;;15.40;55.38;95143.94;5991640;23;20189;-84
2023/03/30 13:26:16;;;;;;;5.30;2.60;;;;;;;15.71;54.46;95138.38;5987966;23;20160;-87
2023/03/30 13:36:05;;;;;;;5.18;2.00;;;;;;;16.60;52.36;95151.66;5983552;24;20173;-84
2023/03/30 13:38:56;;;;;;;3.87;1.67;;;;;;;15.95;53.98;95154.69;5995283;23;20178;-84
2023/03/30 13:41:45;;;;;;;4.50;1.88;;;;;;;16.06;55.08;95154.97;5988346;23;20178;-84
2023/03/30 13:44:38;;;;;;;4.50;1.87;;;;;;;15.31;53.77;95158.13;6011570;23;20230;-85
2023/03/30 13:47:19;;;;;;;4.33;1.90;;;;;;;15.63;53.03;95177.78;6011624;23;20162;-85
2023/03/30 13:50:02;;;;;;;3.75;1.88;;;;;;;15.58;54.01;95160.00;6011238;23;20241;-85
2023/03/30 13:52:35;;;;;;;7.43;2.00;;;;;;;15.68;53.73;95158.91;6011145;23;20158;-84
2023/03/30 13:55:02;;;;;;;4.82;1.63;;;;;;;15.84;52.58;95166.50;6010667;23;20578;-85
2023/03/30 13:57:33;;;;;;;8.20;2.00;;;;;;;15.54;53.11;95163.97;6044718;23;20235;-84
2023/03/30 14:00:06;;;;;;;3.92;2.05;;;;;;;15.31;53.77;95163.38;6051245;23;20180;-84
2023/03/30 14:02:32;;;;;;;3.50;1.83;;;;;;;15.69;53.90;95163.94;6051575;23;20180;-84
2023/03/30 14:05:20;;;;;;;4.60;1.70;;;;;;;15.82;53.25;95173.75;6078040;23;20156;-84
2023/03/30 14:07:46;;;;;;;5.13;1.60;;;;;;;15.43;54.35;95166.28;6054464;23;20157;-84
2023/03/30 14:10:15;;;;;;;3.63;1.67;;;;;;;14.99;54.41;95188.97;6078171;23;20164;-84
2023/03/30 14:12:41;;;;;;;4.13;1.60;;;;;;;15.11;53.83;95193.75;6054526;23;20239;-83
2023/03/30 14:15:46;;;;;;;5.53;1.53;;;;;;;14.40;56.49;95199.44;6076896;23;20450;-84
2023/03/30 14:18:20;;;;;;;6.57;2.20;;;;;;;14.51;56.59;95193.00;6042659;23;20185;-85
2023/03/30 14:20:56;;;;;;;3.73;1.47;;;;;;;14.47;56.63;95211.78;5996713;23;20243;-85
2023/03/30 14:23:29;;;;;;;6.13;1.83;;;;;;;14.57;56.20;95207.13;6021184;23;20185;-84
2023/03/30 14:26:01;;;;;;;5.93;1.53;;;;;;;14.48;56.98;95216.84;6036774;23;20249;-84
2023/03/30 14:28:28;;;;;;;3.80;1.40;;;;;;;13.94;58.69;95224.00;6013561;23;20201;-84
2023/03/30 14:30:56;;;;;;;5.37;1.80;;;;;;;14.27;58.10;95233.19;6014235;23;20154;-84
2023/03/30 14:33:22;;;;;;;2.50;1.30;;;;;;;14.03;58.73;95222.97;6015130;23;20181;-85
2023/03/30 14:35:56;;;;;;;5.90;1.57;;;;;;;14.35;61.69;95214.03;6016093;23;20173;-84
2023/03/30 14:38:38;;;;;;;4.30;1.23;;;;;;;14.49;59.89;95212.41;5992322;23;20625;-84
2023/03/30 14:41:23;;;;;;;3.43;1.10;;;;;;;14.71;57.77;95207.13;6039702;23;20233;-83
2023/03/30 14:44:00;;;;;;;4.33;1.47;;;;;;;14.62;58.96;95207.41;6015414;23;20256;-84
2023/03/30 14:46:38;;;;;;;2.37;1.53;;;;;;;14.12;59.81;95199.22;6036068;23;20169;-83
2023/03/30 14:49:03;;;;;;;5.07;1.67;;;;;;;14.57;59.66;95202.69;6047175;23;20218;-84
2023/03/30 14:51:44;;;;;;;4.30;1.30;;;;;;;14.83;59.50;95210.06;6097367;23;20152;-84
2023/03/30 14:54:14;;;;;;;6.37;1.53;;;;;;;15.19;58.96;95210.09;6073606;23;20160;-85
2023/03/30 14:56:40;;;;;;;3.27;1.70;;;;;;;14.81;59.79;95199.00;6097879;23;20149;-85
2023/03/30 14:59:06;;;;;;;7.40;1.80;;;;;;;14.90;60.02;95205.75;6073855;23;20706;-84
2023/03/30 15:01:32;;;;;;;5.73;1.77;;;;;;;14.52;61.38;95205.06;6073478;23;20268;-86
2023/03/30 15:04:08;;;;;;;4.87;1.90;;;;;;;14.43;62.05;95203.50;6072699;23;20199;-85
2023/03/30 15:06:35;;;;;;;6.27;1.57;;;;;;;14.59;61.38;95205.16;6073444;23;20486;-84
2023/03/30 15:09:02;;;;;;;3.77;1.83;;;;;;;14.15;62.52;95203.28;6074431;23;20737;-84
2023/03/30 15:11:28;;;;;;;2.77;1.40;;;;;;;13.71;63.03;95203.97;6098558;23;20176;-83
2023/03/30 15:14:00;;;;;;;5.77;1.97;;;;;;;13.23;64.33;95212.94;6049688;23;20828;-84
2023/03/30 15:16:31;;;;;;;7.83;1.70;;;;;;;13.15;64.56;95210.34;6072018;23;20180;-84
2023/03/30 15:19:26;;;;;;;4.63;1.50;;;;;;;13.28;66.19;95206.22;6070091;23;20180;-85
2023/03/30 15:21:53;;;;;;;8.50;1.87;;;;;;;13.56;66.17;95203.13;6048910;23;20184;-85